createdAt,value
2022-09-07T00:02:22.878Z,1.65
2022-09-07T00:04:49.373Z,1.40
2022-09-07T00:07:15.900Z,1.50
2022-09-07T00:09:42.627Z,1.10
2022-09-07T00:12:09.185Z,1.58
2022-09-07T00:14:35.756Z,1.50
2022-09-07T00:17:02.260Z,1.52
2022-09-07T00:19:28.829Z,1.67
2022-09-07T00:21:55.325Z,1.67
2022-09-07T00:24:21.811Z,1.60
2022-09-07T00:26:48.301Z,1.40
2022-09-07T00:29:14.848Z,1.20
2022-09-07T00:31:41.497Z,1.92
2022-09-07T00:34:08.017Z,1.73
2022-09-07T00:36:34.512Z,1.50
2022-09-07T00:39:01.008Z,1.33
2022-09-07T00:41:27.599Z,1.73
2022-09-07T00:43:59.832Z,1.27
2022-09-07T00:46:29.417Z,1.45
2022-09-07T00:49:04.966Z,1.77
2022-09-07T00:51:38.522Z,1.75
2022-09-07T00:54:09.218Z,1.70
2022-09-07T00:56:40.045Z,1.85
2022-09-07T00:59:08.204Z,1.55
2022-09-07T01:01:35.955Z,1.83
2022-09-07T01:04:03.535Z,1.92
2022-09-07T01:06:33.393Z,1.77
2022-09-07T01:09:03.774Z,2.10
2022-09-07T01:11:32.406Z,1.90
2022-09-07T01:13:59.137Z,2.45
2022-09-07T01:16:46.285Z,1.95
2022-09-07T01:19:40.516Z,2.28
2022-09-07T01:22:13.043Z,2.15
2022-09-07T01:24:58.226Z,2.00
2022-09-07T01:27:44.648Z,1.98
2022-09-07T01:30:14.412Z,1.90
2022-09-07T01:33:18.506Z,2.38
2022-09-07T01:35:54.402Z,2.17
2022-09-07T01:38:27.583Z,3.05
2022-09-07T01:41:03.219Z,2.00
2022-09-07T01:43:51.537Z,2.22
2022-09-07T01:46:28.062Z,2.10
2022-09-07T01:49:01.212Z,2.30
2022-09-07T01:51:31.940Z,2.00
2022-09-07T01:54:06.384Z,2.10
2022-09-07T01:56:45.609Z,2.63
2022-09-07T01:59:15.089Z,2.80
2022-09-07T02:01:58.764Z,2.05
2022-09-07T02:04:31.567Z,2.40
2022-09-07T02:07:21.092Z,2.47
2022-09-07T02:09:56.731Z,2.30
2022-09-07T02:12:48.601Z,2.20
2022-09-07T02:15:21.074Z,2.33
2022-09-07T02:17:57.477Z,2.08
2022-09-07T02:20:28.844Z,2.00
2022-09-07T02:25:29.174Z,1.63
2022-09-07T02:28:10.133Z,1.90
2022-09-07T02:30:37.241Z,2.13
2022-09-07T02:33:04.312Z,2.03
2022-09-07T02:35:31.084Z,2.42
2022-09-07T02:38:00.552Z,2.08
2022-09-07T02:40:27.172Z,1.80
2022-09-07T02:42:53.790Z,1.92
2022-09-07T02:45:20.464Z,1.88
2022-09-07T02:47:57.612Z,2.88
2022-09-07T02:51:02.190Z,2.00
2022-09-07T02:53:47.435Z,2.38
2022-09-07T02:56:23.044Z,1.77
2022-09-07T02:58:54.148Z,1.98
2022-09-07T03:01:46.299Z,2.17
2022-09-07T03:04:36.805Z,1.90
2022-09-07T03:07:10.597Z,2.50
2022-09-07T03:09:41.321Z,1.85
2022-09-07T03:12:08.620Z,2.25
2022-09-07T03:14:36.171Z,2.28
2022-09-07T03:17:03.057Z,3.15
2022-09-07T03:19:29.524Z,2.20
2022-09-07T03:21:56.018Z,2.30
2022-09-07T03:24:22.597Z,2.60
2022-09-07T03:26:51.661Z,2.78
2022-09-07T03:29:19.265Z,3.00
2022-09-07T03:31:46.268Z,2.45
2022-09-07T03:34:12.879Z,3.20
2022-09-07T03:36:39.565Z,2.05
2022-09-07T03:39:07.290Z,2.42
2022-09-07T03:41:33.869Z,2.38
2022-09-07T03:44:05.101Z,2.85
2022-09-07T03:46:32.632Z,3.13
2022-09-07T03:48:59.281Z,2.70
2022-09-07T03:51:26.302Z,2.90
2022-09-07T03:53:52.853Z,2.45
2022-09-07T03:56:23.702Z,2.88
2022-09-07T03:58:51.392Z,2.47
2022-09-07T04:01:24.262Z,3.00
2022-09-07T04:03:51.872Z,2.55
2022-09-07T04:06:19.499Z,2.53
2022-09-07T04:08:46.567Z,3.03
2022-09-07T04:11:17.004Z,3.08
2022-09-07T04:13:44.569Z,3.22
2022-09-07T04:16:16.907Z,3.10
2022-09-07T04:18:44.083Z,3.00
2022-09-07T04:21:11.430Z,3.58
2022-09-07T04:23:39.545Z,3.33
2022-09-07T04:26:06.265Z,4.00
2022-09-07T04:28:32.921Z,3.00
2022-09-07T04:31:03.050Z,3.50
2022-09-07T04:33:33.414Z,3.00
2022-09-07T04:36:01.046Z,3.25
2022-09-07T04:38:28.847Z,3.88
2022-09-07T04:41:00.138Z,4.00
2022-09-07T04:43:27.501Z,3.35
2022-09-07T04:45:54.169Z,3.47
2022-09-07T04:48:21.078Z,3.25
2022-09-07T04:50:47.800Z,3.63
2022-09-07T04:53:14.297Z,3.92
2022-09-07T04:55:40.835Z,3.85
2022-09-07T04:58:07.311Z,3.03
2022-09-07T05:00:33.838Z,3.13
2022-09-07T05:03:00.332Z,3.78
2022-09-07T05:05:26.833Z,3.22
2022-09-07T05:07:53.359Z,2.97
2022-09-07T05:10:19.864Z,4.78
2022-09-07T05:12:47.100Z,3.30
2022-09-07T05:15:13.671Z,3.53
2022-09-07T05:17:40.206Z,3.47
2022-09-07T05:20:07.376Z,3.90
2022-09-07T05:22:35.552Z,3.38
2022-09-07T05:25:02.252Z,4.05
2022-09-07T05:27:28.729Z,3.30
2022-09-07T05:32:24.895Z,3.97
2022-09-07T05:34:53.044Z,3.67
2022-09-07T05:37:19.885Z,3.50
2022-09-07T05:39:46.820Z,3.08
2022-09-07T05:42:13.716Z,3.75
2022-09-07T05:47:09.796Z,4.13
2022-09-07T05:49:36.339Z,3.78
2022-09-07T05:52:03.204Z,3.30
2022-09-07T05:54:29.709Z,3.50
2022-09-07T05:56:56.217Z,4.20
2022-09-07T05:59:22.769Z,4.20
2022-09-07T06:01:49.476Z,3.80
2022-09-07T06:04:16.212Z,3.53
2022-09-07T06:06:59.167Z,3.67
2022-09-07T06:09:31.586Z,3.20
2022-09-07T06:11:58.099Z,3.28
2022-09-07T06:14:24.941Z,3.00
2022-09-07T06:16:51.542Z,4.00
2022-09-07T06:19:18.079Z,2.60
2022-09-07T06:21:44.618Z,3.33
2022-09-07T06:24:11.183Z,2.60
2022-09-07T06:26:37.678Z,2.35
2022-09-07T06:29:04.230Z,2.55
2022-09-07T06:31:30.944Z,2.58
2022-09-07T06:33:58.751Z,2.75
2022-09-07T06:36:27.710Z,2.47
2022-09-07T06:38:55.745Z,2.10
2022-09-07T06:44:12.255Z,2.47
2022-09-07T06:49:25.929Z,2.40
2022-09-07T06:51:52.432Z,2.15
2022-09-07T06:57:09.006Z,2.90
2022-09-07T06:59:37.143Z,2.58
2022-09-07T07:02:05.116Z,2.20
2022-09-07T07:04:33.248Z,2.20
2022-09-07T07:09:29.454Z,2.22
2022-09-07T07:11:55.969Z,1.80
2022-09-07T07:14:22.519Z,2.00
2022-09-07T07:16:49.087Z,2.10
2022-09-07T07:19:16.492Z,2.33
2022-09-07T07:22:07.989Z,2.08
2022-09-07T07:24:29.569Z,1.83
2022-09-07T07:26:56.450Z,1.98
2022-09-07T07:29:25.129Z,2.47
2022-09-07T07:31:54.741Z,1.85
2022-09-07T07:34:21.361Z,2.20
2022-09-07T07:36:47.953Z,2.20
2022-09-07T07:42:03.536Z,2.40
2022-09-07T07:44:31.954Z,2.55
2022-09-07T07:46:58.523Z,2.03
2022-09-07T07:49:25.046Z,2.75
2022-09-07T07:54:41.033Z,2.03
2022-09-07T07:57:07.691Z,2.20
2022-09-07T07:59:35.086Z,2.45
2022-09-07T08:02:05.318Z,1.98
2022-09-07T08:04:35.115Z,2.70
2022-09-07T08:07:09.205Z,1.88
2022-09-07T08:09:38.681Z,2.10
2022-09-07T08:12:05.405Z,2.50
2022-09-07T08:14:31.966Z,2.05
2022-09-07T08:16:58.420Z,2.67
2022-09-07T08:19:24.830Z,1.83
2022-09-07T08:21:51.289Z,2.80
2022-09-07T08:24:17.673Z,1.90
2022-09-07T08:26:44.070Z,1.90
2022-09-07T08:29:10.513Z,1.90
2022-09-07T08:31:37.509Z,1.92
2022-09-07T08:34:04.111Z,2.25
2022-09-07T08:36:31.890Z,1.98
2022-09-07T08:38:58.384Z,1.90
2022-09-07T08:41:34.824Z,2.55
2022-09-07T08:44:12.836Z,2.00
2022-09-07T08:46:50.047Z,1.95
2022-09-07T08:49:23.372Z,2.03
2022-09-07T08:51:57.089Z,2.40
2022-09-07T08:54:23.524Z,2.28
2022-09-07T08:59:46.997Z,2.90
2022-09-07T09:02:35.102Z,1.75
2022-09-07T09:05:20.563Z,2.30
2022-09-07T09:08:27.269Z,2.28
2022-09-07T09:11:10.508Z,2.20
2022-09-07T09:13:55.909Z,2.00
2022-09-07T09:16:43.383Z,1.92
2022-09-07T09:19:39.664Z,2.00
2022-09-07T09:22:28.211Z,2.42
2022-09-07T09:25:05.766Z,2.03
2022-09-07T09:27:32.173Z,2.15
2022-09-07T09:29:58.660Z,1.77
2022-09-07T09:32:34.491Z,1.92
2022-09-07T09:35:25.776Z,2.25
2022-09-07T09:37:52.343Z,2.22
2022-09-07T09:40:25.312Z,2.08
2022-09-07T09:43:36.262Z,1.70
2022-09-07T09:46:18.215Z,1.63
2022-09-07T09:48:52.084Z,2.10
2022-09-07T09:54:16.869Z,2.40
2022-09-07T09:56:45.397Z,2.78
2022-09-07T10:05:40.621Z,2.30
2022-09-07T10:08:23.701Z,2.42
2022-09-07T10:11:01.640Z,2.10
2022-09-07T10:13:29.600Z,1.70
2022-09-07T10:15:58.652Z,2.28
2022-09-07T10:18:32.340Z,2.00
2022-09-07T10:21:31.698Z,1.80
2022-09-07T10:24:15.438Z,1.95
2022-09-07T10:26:47.145Z,1.73
2022-09-07T10:29:22.348Z,2.15
2022-09-07T10:32:10.462Z,2.40
2022-09-07T10:34:55.024Z,1.60
2022-09-07T10:37:30.465Z,2.22
2022-09-07T10:40:05.562Z,1.88
2022-09-07T10:43:20.567Z,1.80
2022-09-07T10:45:52.076Z,2.10
2022-09-07T10:48:26.577Z,1.80
2022-09-07T10:51:05.083Z,1.92
2022-09-07T10:56:45.424Z,2.75
2022-09-07T11:00:07.523Z,3.75
2022-09-07T11:02:19.081Z,2.30
2022-09-07T11:04:55.356Z,2.25
2022-09-07T11:07:46.435Z,1.60
2022-09-07T11:10:28.602Z,1.95
2022-09-07T11:12:59.633Z,1.73
2022-09-07T11:18:17.832Z,1.50
2022-09-07T11:20:54.760Z,1.60
2022-09-07T11:23:26.135Z,1.58
2022-09-07T11:26:12.845Z,2.17
2022-09-07T11:31:47.447Z,1.90
2022-09-07T11:34:39.020Z,2.38
2022-09-07T11:37:28.149Z,1.73
2022-09-07T11:40:11.655Z,1.67
2022-09-07T11:42:46.921Z,1.60
2022-09-07T11:45:23.500Z,4.57
2022-09-07T11:47:56.107Z,1.50
2022-09-07T11:50:23.797Z,1.75
2022-09-07T11:52:55.778Z,1.30
2022-09-07T11:55:29.306Z,1.50
2022-09-07T11:58:26.582Z,1.52
2022-09-07T12:01:20.496Z,1.40
2022-09-07T12:04:04.666Z,1.35
2022-09-07T17:39:14.430Z,1.67
2022-09-07T17:40:50.976Z,1.50
2022-09-07T17:46:14.302Z,1.20
2022-09-07T17:48:41.809Z,1.15
2022-09-07T17:51:10.021Z,1.23
2022-09-07T17:53:39.356Z,1.17
2022-09-07T17:56:07.537Z,1.00
2022-09-07T17:58:38.698Z,1.38
2022-09-07T18:01:07.335Z,1.17
2022-09-07T18:03:36.014Z,0.98
2022-09-07T18:06:03.257Z,1.20
2022-09-07T18:08:29.889Z,1.42
2022-09-07T18:16:35.554Z,1.45
2022-09-07T18:19:07.261Z,1.30
2022-09-07T18:21:36.116Z,1.20
2022-09-07T18:24:07.321Z,1.38
2022-09-07T18:26:36.028Z,1.50
2022-09-07T18:29:04.074Z,2.25
2022-09-07T18:31:31.811Z,1.20
2022-09-07T18:33:58.546Z,1.30
2022-09-07T18:36:26.254Z,1.52
2022-09-07T18:38:53.396Z,1.10
2022-09-07T18:41:19.939Z,1.20
2022-09-07T18:43:48.000Z,1.38
2022-09-07T18:46:17.080Z,1.30
2022-09-07T18:48:44.105Z,1.42
2022-09-07T18:51:11.323Z,2.22
2022-09-07T18:53:38.601Z,1.38
2022-09-07T18:56:13.585Z,1.30
2022-09-07T18:58:41.739Z,1.10
2022-09-07T19:01:11.130Z,1.50
2022-09-07T19:03:37.851Z,1.52
2022-09-07T19:06:13.056Z,1.35
2022-09-07T19:08:41.659Z,2.13
2022-09-07T19:11:10.628Z,1.50
2022-09-07T19:13:38.452Z,1.20
2022-09-07T19:16:12.406Z,1.90
2022-09-07T19:18:40.501Z,1.30
2022-09-07T19:21:12.443Z,1.25
2022-09-07T19:43:25.850Z,1.23
2022-09-07T19:45:52.252Z,1.40
2022-09-07T19:48:18.855Z,1.58
2022-09-07T19:50:46.736Z,1.40
2022-09-07T19:53:14.025Z,1.55
2022-09-07T19:55:40.673Z,1.50
2022-09-07T19:58:07.645Z,1.15
2022-09-07T20:00:34.172Z,1.10
2022-09-07T20:03:00.804Z,2.17
2022-09-07T20:05:30.921Z,1.65
2022-09-07T20:07:57.659Z,1.80
2022-09-07T20:10:24.552Z,1.67
2022-09-07T20:12:50.948Z,1.60
2022-09-07T20:15:17.420Z,2.13
2022-09-07T20:17:43.831Z,1.85
2022-09-07T20:20:10.371Z,1.60
2022-09-07T20:22:36.761Z,1.88
2022-09-07T20:25:03.443Z,1.65
2022-09-07T20:27:30.515Z,2.05
2022-09-07T20:29:56.905Z,1.73
2022-09-07T20:32:23.397Z,1.52
2022-09-07T20:34:50.458Z,1.70
2022-09-07T20:37:16.839Z,1.65
2022-09-07T20:39:43.295Z,1.80
2022-09-07T20:42:09.701Z,1.65
2022-09-07T20:44:36.259Z,1.80
2022-09-07T20:47:03.016Z,3.65
2022-09-07T20:49:29.958Z,1.60
2022-09-07T20:51:56.407Z,1.63
2022-09-07T20:54:22.867Z,1.55
2022-09-07T20:56:49.250Z,1.95
2022-09-07T20:59:15.762Z,1.70
2022-09-07T21:01:42.329Z,2.00
2022-09-07T21:04:08.816Z,1.67
2022-09-07T21:06:35.315Z,1.60
2022-09-07T21:09:01.817Z,2.67
2022-09-07T21:11:33.938Z,1.58
2022-09-07T21:14:11.023Z,1.58
2022-09-07T21:16:38.176Z,1.95
2022-09-07T21:19:07.387Z,2.03
2022-09-07T21:21:38.568Z,1.75
2022-09-07T21:24:06.168Z,1.88
2022-09-07T21:26:32.704Z,1.77
2022-09-07T21:29:01.453Z,1.77
2022-09-07T21:31:29.863Z,2.13
2022-09-07T21:33:59.029Z,1.67
2022-09-07T21:36:26.460Z,1.90
2022-09-07T21:38:54.182Z,3.00
2022-09-07T21:41:23.228Z,1.83
2022-09-07T21:43:54.284Z,2.10
2022-09-07T21:46:20.723Z,1.90
2022-09-07T21:48:47.152Z,1.92
2022-09-07T21:51:14.688Z,2.00
2022-09-07T21:53:42.253Z,2.33
2022-09-07T21:56:14.048Z,2.15
2022-09-07T21:58:41.494Z,2.00
2022-09-07T22:01:16.784Z,2.75
2022-09-07T22:03:44.701Z,2.03
2022-09-07T22:06:11.393Z,2.00
2022-09-07T22:08:39.916Z,2.30
2022-09-07T22:11:12.451Z,2.65
2022-09-07T22:13:39.268Z,1.95
2022-09-07T22:16:06.862Z,2.03
2022-09-07T22:18:34.521Z,2.25
2022-09-07T22:21:10.352Z,2.13
2022-09-07T22:23:42.728Z,2.22
2022-09-07T22:26:09.831Z,2.35
2022-09-07T22:28:36.862Z,2.13
2022-09-07T22:31:11.976Z,2.00
2022-09-07T22:33:39.201Z,1.92
2022-09-07T22:36:33.720Z,1.92
2022-09-07T22:39:03.073Z,1.75
2022-09-07T22:41:32.597Z,1.92
2022-09-07T22:43:59.733Z,2.30
2022-09-07T22:46:28.689Z,2.28
2022-09-07T22:48:56.656Z,1.88
2022-09-07T22:51:26.519Z,2.20
2022-09-07T22:53:54.181Z,3.03
2022-09-07T22:56:23.088Z,3.15
2022-09-07T22:58:52.128Z,2.08
2022-09-07T23:01:19.152Z,2.08
2022-09-07T23:03:45.753Z,1.98
2022-09-07T23:06:23.778Z,1.80
2022-09-07T23:08:51.669Z,2.17
2022-09-07T23:11:19.409Z,2.47
2022-09-07T23:13:46.108Z,2.30
2022-09-07T23:16:12.585Z,2.20
2022-09-07T23:18:42.765Z,2.47
2022-09-07T23:21:10.688Z,2.50
2022-09-07T23:23:37.169Z,2.75
2022-09-07T23:26:04.918Z,3.17
2022-09-07T23:28:31.639Z,3.13
2022-09-07T23:30:58.669Z,2.70
2022-09-07T23:33:26.169Z,3.00
2022-09-07T23:36:04.344Z,3.42
2022-09-07T23:38:31.254Z,3.00
2022-09-07T23:40:58.756Z,3.08
2022-09-07T23:43:27.296Z,2.53
2022-09-07T23:45:54.697Z,4.70
2022-09-07T23:48:21.751Z,3.17
2022-09-07T23:50:48.847Z,3.35
2022-09-07T23:53:16.049Z,3.65
2022-09-07T23:55:42.846Z,3.10
2022-09-07T23:58:09.875Z,3.45
